sensor_id;sensor_type;location;lat;lon;timestamp;P1;durP1;ratioP1;P2;durP2;ratioP2
8887;SDS011;4480;52.370;9.748;2022-11-20T00:00:00;15.02;;;11.15;;
8887;SDS011;4480;52.370;9.748;2022-11-20T00:02:29;19.77;;;10.73;;
8887;SDS011;4480;52.370;9.748;2022-11-20T00:04:55;13.77;;;9.60;;
8887;SDS011;4480;52.370;9.748;2022-11-20T00:07:22;16.35;;;11.30;;
8887;SDS011;4480;52.370;9.748;2022-11-20T00:09:49;16.80;;;11.05;;
8887;SDS011;4480;52.370;9.748;2022-11-20T00:12:16;16.17;;;10.77;;
8887;SDS011;4480;52.370;9.748;2022-11-20T00:14:43;17.40;;;11.57;;
8887;SDS011;4480;52.370;9.748;2022-11-20T00:17:09;15.90;;;11.20;;
8887;SDS011;4480;52.370;9.748;2022-11-20T00:19:37;18.35;;;10.90;;
8887;SDS011;4480;52.370;9.748;2022-11-20T00:22:04;17.95;;;11.88;;
8887;SDS011;4480;52.370;9.748;2022-11-20T00:24:31;14.38;;;10.75;;
8887;SDS011;4480;52.370;9.748;2022-11-20T00:26:58;16.35;;;10.77;;
8887;SDS011;4480;52.370;9.748;2022-11-20T00:29:24;18.83;;;12.27;;
8887;SDS011;4480;52.370;9.748;2022-11-20T00:31:51;14.90;;;11.25;;
8887;SDS011;4480;52.370;9.748;2022-11-20T00:34:18;16.25;;;11.95;;
8887;SDS011;4480;52.370;9.748;2022-11-20T00:36:46;14.18;;;10.30;;
8887;SDS011;4480;52.370;9.748;2022-11-20T00:39:13;15.98;;;9.77;;
8887;SDS011;4480;52.370;9.748;2022-11-20T00:41:39;14.68;;;10.93;;
8887;SDS011;4480;52.370;9.748;2022-11-20T00:44:06;13.50;;;10.20;;
8887;SDS011;4480;52.370;9.748;2022-11-20T00:46:33;15.93;;;11.60;;
8887;SDS011;4480;52.370;9.748;2022-11-20T00:49:00;16.50;;;10.65;;
8887;SDS011;4480;52.370;9.748;2022-11-20T00:51:27;14.00;;;9.85;;
8887;SDS011;4480;52.370;9.748;2022-11-20T00:53:56;13.02;;;9.63;;
8887;SDS011;4480;52.370;9.748;2022-11-20T00:56:25;12.95;;;9.70;;
8887;SDS011;4480;52.370;9.748;2022-11-20T00:58:52;12.77;;;10.25;;
8887;SDS011;4480;52.370;9.748;2022-11-20T01:01:19;14.88;;;9.88;;
8887;SDS011;4480;52.370;9.748;2022-11-20T01:03:49;17.13;;;10.90;;
8887;SDS011;4480;52.370;9.748;2022-11-20T01:06:19;15.45;;;11.00;;
8887;SDS011;4480;52.370;9.748;2022-11-20T01:08:47;17.67;;;10.90;;
8887;SDS011;4480;52.370;9.748;2022-11-20T01:11:16;12.10;;;9.88;;
8887;SDS011;4480;52.370;9.748;2022-11-20T01:13:47;16.52;;;11.70;;
8887;SDS011;4480;52.370;9.748;2022-11-20T01:16:15;14.43;;;10.18;;
8887;SDS011;4480;52.370;9.748;2022-11-20T01:18:44;16.85;;;11.68;;
8887;SDS011;4480;52.370;9.748;2022-11-20T01:21:13;15.27;;;9.85;;
8887;SDS011;4480;52.370;9.748;2022-11-20T01:23:41;15.85;;;10.65;;
8887;SDS011;4480;52.370;9.748;2022-11-20T01:26:10;13.70;;;9.30;;
8887;SDS011;4480;52.370;9.748;2022-11-20T01:28:39;15.77;;;10.10;;
8887;SDS011;4480;52.370;9.748;2022-11-20T01:31:10;18.00;;;10.00;;
8887;SDS011;4480;52.370;9.748;2022-11-20T01:33:38;14.43;;;9.52;;
8887;SDS011;4480;52.370;9.748;2022-11-20T01:36:06;14.60;;;10.05;;
8887;SDS011;4480;52.370;9.748;2022-11-20T01:38:34;15.35;;;10.45;;
8887;SDS011;4480;52.370;9.748;2022-11-20T01:41:01;12.98;;;9.60;;
8887;SDS011;4480;52.370;9.748;2022-11-20T01:43:28;12.15;;;8.10;;
8887;SDS011;4480;52.370;9.748;2022-11-20T01:48:42;11.98;;;8.15;;
8887;SDS011;4480;52.370;9.748;2022-11-20T01:51:16;16.08;;;9.75;;
8887;SDS011;4480;52.370;9.748;2022-11-20T01:53:48;13.82;;;9.35;;
8887;SDS011;4480;52.370;9.748;2022-11-20T01:56:16;13.07;;;9.13;;
8887;SDS011;4480;52.370;9.748;2022-11-20T01:58:44;20.27;;;9.48;;
8887;SDS011;4480;52.370;9.748;2022-11-20T02:01:17;14.68;;;9.73;;
8887;SDS011;4480;52.370;9.748;2022-11-20T02:03:44;12.93;;;8.15;;
8887;SDS011;4480;52.370;9.748;2022-11-20T02:06:12;12.00;;;8.73;;
8887;SDS011;4480;52.370;9.748;2022-11-20T02:08:44;14.27;;;9.32;;
8887;SDS011;4480;52.370;9.748;2022-11-20T02:11:10;13.63;;;9.93;;
8887;SDS011;4480;52.370;9.748;2022-11-20T02:13:38;11.60;;;8.88;;
8887;SDS011;4480;52.370;9.748;2022-11-20T02:16:08;13.50;;;8.93;;
8887;SDS011;4480;52.370;9.748;2022-11-20T02:18:39;12.07;;;9.52;;
8887;SDS011;4480;52.370;9.748;2022-11-20T02:21:08;11.60;;;8.90;;
8887;SDS011;4480;52.370;9.748;2022-11-20T02:23:50;15.13;;;10.20;;
8887;SDS011;4480;52.370;9.748;2022-11-20T02:26:24;14.63;;;9.80;;
8887;SDS011;4480;52.370;9.748;2022-11-20T02:28:53;12.05;;;9.27;;
8887;SDS011;4480;52.370;9.748;2022-11-20T02:31:20;12.35;;;8.80;;
8887;SDS011;4480;52.370;9.748;2022-11-20T02:33:47;17.52;;;10.68;;
8887;SDS011;4480;52.370;9.748;2022-11-20T02:36:19;11.68;;;8.63;;
8887;SDS011;4480;52.370;9.748;2022-11-20T02:38:46;16.38;;;9.07;;
8887;SDS011;4480;52.370;9.748;2022-11-20T02:41:15;12.98;;;8.70;;
8887;SDS011;4480;52.370;9.748;2022-11-20T02:43:42;12.43;;;9.02;;
8887;SDS011;4480;52.370;9.748;2022-11-20T02:46:09;12.43;;;9.35;;
8887;SDS011;4480;52.370;9.748;2022-11-20T02:48:36;13.25;;;9.20;;
8887;SDS011;4480;52.370;9.748;2022-11-20T02:51:02;13.93;;;9.77;;
8887;SDS011;4480;52.370;9.748;2022-11-20T02:53:29;11.93;;;9.10;;
8887;SDS011;4480;52.370;9.748;2022-11-20T02:55:56;14.25;;;8.82;;
8887;SDS011;4480;52.370;9.748;2022-11-20T02:58:24;10.77;;;7.78;;
8887;SDS011;4480;52.370;9.748;2022-11-20T03:00:51;10.90;;;7.80;;
8887;SDS011;4480;52.370;9.748;2022-11-20T03:03:18;13.65;;;9.73;;
8887;SDS011;4480;52.370;9.748;2022-11-20T03:05:45;11.73;;;7.88;;
8887;SDS011;4480;52.370;9.748;2022-11-20T03:08:12;15.48;;;9.05;;
8887;SDS011;4480;52.370;9.748;2022-11-20T03:10:38;12.90;;;8.57;;
8887;SDS011;4480;52.370;9.748;2022-11-20T03:13:05;13.68;;;9.23;;
8887;SDS011;4480;52.370;9.748;2022-11-20T03:15:33;13.35;;;9.55;;
8887;SDS011;4480;52.370;9.748;2022-11-20T03:18:02;12.95;;;8.98;;
8887;SDS011;4480;52.370;9.748;2022-11-20T03:20:29;12.05;;;8.40;;
8887;SDS011;4480;52.370;9.748;2022-11-20T03:22:58;11.65;;;7.93;;
8887;SDS011;4480;52.370;9.748;2022-11-20T03:25:25;9.98;;;7.57;;
8887;SDS011;4480;52.370;9.748;2022-11-20T03:27:51;10.90;;;9.00;;
8887;SDS011;4480;52.370;9.748;2022-11-20T03:30:19;11.88;;;8.65;;
8887;SDS011;4480;52.370;9.748;2022-11-20T03:32:48;10.05;;;8.35;;
8887;SDS011;4480;52.370;9.748;2022-11-20T03:35:14;10.95;;;7.80;;
8887;SDS011;4480;52.370;9.748;2022-11-20T03:37:41;15.70;;;9.88;;
8887;SDS011;4480;52.370;9.748;2022-11-20T03:40:08;13.85;;;10.02;;
8887;SDS011;4480;52.370;9.748;2022-11-20T03:42:35;11.65;;;9.10;;
8887;SDS011;4480;52.370;9.748;2022-11-20T03:45:11;11.60;;;9.07;;
8887;SDS011;4480;52.370;9.748;2022-11-20T03:47:39;13.30;;;9.90;;
8887;SDS011;4480;52.370;9.748;2022-11-20T03:50:07;13.57;;;9.43;;
8887;SDS011;4480;52.370;9.748;2022-11-20T03:52:35;13.60;;;9.52;;
8887;SDS011;4480;52.370;9.748;2022-11-20T03:55:02;11.90;;;9.05;;
8887;SDS011;4480;52.370;9.748;2022-11-20T03:57:29;11.70;;;8.40;;
8887;SDS011;4480;52.370;9.748;2022-11-20T03:59:56;13.45;;;9.55;;
8887;SDS011;4480;52.370;9.748;2022-11-20T04:02:23;13.00;;;8.88;;
8887;SDS011;4480;52.370;9.748;2022-11-20T04:04:49;15.15;;;9.25;;
8887;SDS011;4480;52.370;9.748;2022-11-20T04:10:33;14.10;;;8.73;;
8887;SDS011;4480;52.370;9.748;2022-11-20T04:13:00;13.18;;;9.90;;
8887;SDS011;4480;52.370;9.748;2022-11-20T04:15:27;13.82;;;9.40;;
8887;SDS011;4480;52.370;9.748;2022-11-20T04:17:54;15.13;;;9.23;;
8887;SDS011;4480;52.370;9.748;2022-11-20T04:23:04;14.32;;;8.80;;
8887;SDS011;4480;52.370;9.748;2022-11-20T04:25:31;12.98;;;9.07;;
8887;SDS011;4480;52.370;9.748;2022-11-20T04:27:59;13.23;;;8.05;;
8887;SDS011;4480;52.370;9.748;2022-11-20T04:30:25;11.57;;;8.43;;
8887;SDS011;4480;52.370;9.748;2022-11-20T04:32:52;12.23;;;8.73;;
8887;SDS011;4480;52.370;9.748;2022-11-20T04:35:19;10.60;;;8.90;;
8887;SDS011;4480;52.370;9.748;2022-11-20T04:37:45;13.38;;;8.60;;
8887;SDS011;4480;52.370;9.748;2022-11-20T04:40:12;15.48;;;10.55;;
8887;SDS011;4480;52.370;9.748;2022-11-20T04:42:39;12.77;;;9.63;;
8887;SDS011;4480;52.370;9.748;2022-11-20T04:45:08;12.55;;;9.48;;
8887;SDS011;4480;52.370;9.748;2022-11-20T04:47:35;15.45;;;9.93;;
8887;SDS011;4480;52.370;9.748;2022-11-20T04:50:02;10.40;;;7.85;;
8887;SDS011;4480;52.370;9.748;2022-11-20T04:52:29;12.85;;;8.77;;
8887;SDS011;4480;52.370;9.748;2022-11-20T04:54:55;10.88;;;8.35;;
8887;SDS011;4480;52.370;9.748;2022-11-20T04:57:22;15.57;;;8.85;;
8887;SDS011;4480;52.370;9.748;2022-11-20T04:59:49;13.30;;;9.60;;
8887;SDS011;4480;52.370;9.748;2022-11-20T05:02:17;11.77;;;9.02;;
8887;SDS011;4480;52.370;9.748;2022-11-20T05:04:44;13.00;;;8.52;;
8887;SDS011;4480;52.370;9.748;2022-11-20T05:07:10;11.52;;;8.30;;
8887;SDS011;4480;52.370;9.748;2022-11-20T05:09:37;12.35;;;8.23;;
8887;SDS011;4480;52.370;9.748;2022-11-20T05:12:04;13.77;;;8.65;;
8887;SDS011;4480;52.370;9.748;2022-11-20T05:14:33;11.43;;;8.85;;
8887;SDS011;4480;52.370;9.748;2022-11-20T05:17:00;12.27;;;9.00;;
8887;SDS011;4480;52.370;9.748;2022-11-20T05:19:28;13.20;;;9.23;;
8887;SDS011;4480;52.370;9.748;2022-11-20T05:21:55;11.70;;;8.63;;
8887;SDS011;4480;52.370;9.748;2022-11-20T05:24:22;10.80;;;8.82;;
8887;SDS011;4480;52.370;9.748;2022-11-20T05:26:49;11.52;;;8.20;;
8887;SDS011;4480;52.370;9.748;2022-11-20T05:29:16;12.25;;;8.85;;
8887;SDS011;4480;52.370;9.748;2022-11-20T05:31:42;13.15;;;8.55;;
8887;SDS011;4480;52.370;9.748;2022-11-20T05:34:09;11.32;;;7.75;;
8887;SDS011;4480;52.370;9.748;2022-11-20T05:36:37;10.70;;;8.30;;
8887;SDS011;4480;52.370;9.748;2022-11-20T05:39:04;9.82;;;7.93;;
8887;SDS011;4480;52.370;9.748;2022-11-20T05:41:32;10.90;;;7.80;;
8887;SDS011;4480;52.370;9.748;2022-11-20T05:43:59;9.27;;;7.85;;
8887;SDS011;4480;52.370;9.748;2022-11-20T05:46:26;11.65;;;8.02;;
8887;SDS011;4480;52.370;9.748;2022-11-20T05:48:53;12.32;;;8.85;;
8887;SDS011;4480;52.370;9.748;2022-11-20T05:51:20;10.70;;;7.88;;
8887;SDS011;4480;52.370;9.748;2022-11-20T05:53:48;11.70;;;7.78;;
8887;SDS011;4480;52.370;9.748;2022-11-20T05:56:15;11.15;;;8.35;;
8887;SDS011;4480;52.370;9.748;2022-11-20T05:58:44;12.05;;;8.23;;
8887;SDS011;4480;52.370;9.748;2022-11-20T06:01:12;11.40;;;9.15;;
8887;SDS011;4480;52.370;9.748;2022-11-20T06:03:40;13.48;;;8.20;;
8887;SDS011;4480;52.370;9.748;2022-11-20T06:06:10;10.93;;;8.35;;
8887;SDS011;4480;52.370;9.748;2022-11-20T06:08:38;13.20;;;8.27;;
8887;SDS011;4480;52.370;9.748;2022-11-20T06:11:06;12.93;;;8.95;;
8887;SDS011;4480;52.370;9.748;2022-11-20T06:13:34;11.90;;;7.93;;
8887;SDS011;4480;52.370;9.748;2022-11-20T06:16:02;9.23;;;7.55;;
8887;SDS011;4480;52.370;9.748;2022-11-20T06:18:29;12.63;;;8.13;;
8887;SDS011;4480;52.370;9.748;2022-11-20T06:21:00;10.45;;;7.45;;
8887;SDS011;4480;52.370;9.748;2022-11-20T06:23:29;11.10;;;8.18;;
8887;SDS011;4480;52.370;9.748;2022-11-20T06:25:56;10.57;;;7.28;;
8887;SDS011;4480;52.370;9.748;2022-11-20T06:28:24;10.07;;;7.20;;
8887;SDS011;4480;52.370;9.748;2022-11-20T06:30:51;9.68;;;7.45;;
8887;SDS011;4480;52.370;9.748;2022-11-20T06:33:18;11.00;;;7.20;;
8887;SDS011;4480;52.370;9.748;2022-11-20T06:35:45;10.65;;;7.63;;
8887;SDS011;4480;52.370;9.748;2022-11-20T06:38:11;6.95;;;6.20;;
8887;SDS011;4480;52.370;9.748;2022-11-20T06:40:39;12.00;;;7.75;;
8887;SDS011;4480;52.370;9.748;2022-11-20T06:43:06;10.40;;;8.20;;
8887;SDS011;4480;52.370;9.748;2022-11-20T06:45:34;9.63;;;7.13;;
8887;SDS011;4480;52.370;9.748;2022-11-20T06:48:01;10.95;;;8.20;;
8887;SDS011;4480;52.370;9.748;2022-11-20T06:50:28;9.15;;;7.15;;
8887;SDS011;4480;52.370;9.748;2022-11-20T06:52:55;8.38;;;7.22;;
8887;SDS011;4480;52.370;9.748;2022-11-20T06:55:22;9.50;;;7.55;;
8887;SDS011;4480;52.370;9.748;2022-11-20T06:57:50;11.60;;;8.23;;
8887;SDS011;4480;52.370;9.748;2022-11-20T07:00:17;9.52;;;8.05;;
8887;SDS011;4480;52.370;9.748;2022-11-20T07:02:45;9.95;;;7.57;;
8887;SDS011;4480;52.370;9.748;2022-11-20T07:05:12;11.63;;;6.80;;
8887;SDS011;4480;52.370;9.748;2022-11-20T07:07:38;11.40;;;7.60;;
8887;SDS011;4480;52.370;9.748;2022-11-20T07:10:05;9.25;;;7.03;;
8887;SDS011;4480;52.370;9.748;2022-11-20T07:12:32;10.55;;;6.72;;
8887;SDS011;4480;52.370;9.748;2022-11-20T07:14:59;10.07;;;7.25;;
8887;SDS011;4480;52.370;9.748;2022-11-20T07:17:26;10.68;;;8.38;;
8887;SDS011;4480;52.370;9.748;2022-11-20T07:19:54;10.98;;;8.38;;
8887;SDS011;4480;52.370;9.748;2022-11-20T07:22:21;10.90;;;8.80;;
8887;SDS011;4480;52.370;9.748;2022-11-20T07:24:47;12.05;;;9.10;;
8887;SDS011;4480;52.370;9.748;2022-11-20T07:27:14;12.00;;;8.82;;
8887;SDS011;4480;52.370;9.748;2022-11-20T07:29:41;11.90;;;8.77;;
8887;SDS011;4480;52.370;9.748;2022-11-20T07:32:08;8.98;;;7.90;;
8887;SDS011;4480;52.370;9.748;2022-11-20T07:34:34;12.60;;;8.77;;
8887;SDS011;4480;52.370;9.748;2022-11-20T07:37:02;9.93;;;8.15;;
8887;SDS011;4480;52.370;9.748;2022-11-20T07:39:29;9.43;;;7.90;;
8887;SDS011;4480;52.370;9.748;2022-11-20T07:41:56;10.50;;;7.55;;
8887;SDS011;4480;52.370;9.748;2022-11-20T07:44:22;10.48;;;8.48;;
8887;SDS011;4480;52.370;9.748;2022-11-20T07:46:49;9.80;;;7.60;;
8887;SDS011;4480;52.370;9.748;2022-11-20T07:49:16;9.82;;;7.35;;
8887;SDS011;4480;52.370;9.748;2022-11-20T07:51:43;10.27;;;8.50;;
8887;SDS011;4480;52.370;9.748;2022-11-20T07:54:11;11.20;;;7.60;;
8887;SDS011;4480;52.370;9.748;2022-11-20T07:56:37;8.95;;;7.15;;
8887;SDS011;4480;52.370;9.748;2022-11-20T07:59:04;11.10;;;7.65;;
8887;SDS011;4480;52.370;9.748;2022-11-20T08:01:31;9.18;;;7.82;;
8887;SDS011;4480;52.370;9.748;2022-11-20T08:03:57;8.65;;;6.78;;
8887;SDS011;4480;52.370;9.748;2022-11-20T08:06:24;10.35;;;7.32;;
8887;SDS011;4480;52.370;9.748;2022-11-20T08:08:51;11.23;;;7.32;;
8887;SDS011;4480;52.370;9.748;2022-11-20T08:11:19;11.82;;;6.80;;
8887;SDS011;4480;52.370;9.748;2022-11-20T08:14:04;11.82;;;7.78;;
8887;SDS011;4480;52.370;9.748;2022-11-20T08:16:41;9.68;;;7.78;;
8887;SDS011;4480;52.370;9.748;2022-11-20T08:19:08;12.95;;;8.43;;
8887;SDS011;4480;52.370;9.748;2022-11-20T08:21:36;11.38;;;7.57;;
8887;SDS011;4480;52.370;9.748;2022-11-20T08:24:03;9.82;;;7.63;;
8887;SDS011;4480;52.370;9.748;2022-11-20T08:26:32;8.93;;;7.25;;
8887;SDS011;4480;52.370;9.748;2022-11-20T08:28:59;8.65;;;6.50;;
8887;SDS011;4480;52.370;9.748;2022-11-20T08:31:26;11.00;;;7.97;;
8887;SDS011;4480;52.370;9.748;2022-11-20T08:33:53;11.60;;;8.52;;
8887;SDS011;4480;52.370;9.748;2022-11-20T08:36:20;11.35;;;8.30;;
8887;SDS011;4480;52.370;9.748;2022-11-20T08:38:47;11.27;;;8.45;;
8887;SDS011;4480;52.370;9.748;2022-11-20T08:41:14;10.25;;;8.23;;
8887;SDS011;4480;52.370;9.748;2022-11-20T08:43:59;13.60;;;8.68;;
8887;SDS011;4480;52.370;9.748;2022-11-20T08:46:27;11.65;;;8.07;;
8887;SDS011;4480;52.370;9.748;2022-11-20T08:48:58;10.95;;;7.35;;
8887;SDS011;4480;52.370;9.748;2022-11-20T08:51:25;10.40;;;8.20;;
8887;SDS011;4480;52.370;9.748;2022-11-20T08:53:52;9.15;;;7.97;;
8887;SDS011;4480;52.370;9.748;2022-11-20T08:56:19;12.73;;;9.07;;
8887;SDS011;4480;52.370;9.748;2022-11-20T08:58:45;9.88;;;8.20;;
8887;SDS011;4480;52.370;9.748;2022-11-20T09:01:13;12.07;;;8.98;;
8887;SDS011;4480;52.370;9.748;2022-11-20T09:03:40;13.38;;;8.52;;
8887;SDS011;4480;52.370;9.748;2022-11-20T09:06:07;13.20;;;8.23;;
8887;SDS011;4480;52.370;9.748;2022-11-20T09:08:34;11.75;;;8.38;;
8887;SDS011;4480;52.370;9.748;2022-11-20T09:11:02;9.27;;;7.70;;
8887;SDS011;4480;52.370;9.748;2022-11-20T09:13:29;10.65;;;7.97;;
8887;SDS011;4480;52.370;9.748;2022-11-20T09:15:57;10.95;;;7.40;;
8887;SDS011;4480;52.370;9.748;2022-11-20T09:18:26;9.18;;;7.05;;
8887;SDS011;4480;52.370;9.748;2022-11-20T09:20:56;10.52;;;7.90;;
8887;SDS011;4480;52.370;9.748;2022-11-20T09:23:23;9.40;;;7.75;;
8887;SDS011;4480;52.370;9.748;2022-11-20T09:25:50;12.05;;;8.73;;
8887;SDS011;4480;52.370;9.748;2022-11-20T09:28:17;10.40;;;7.15;;
8887;SDS011;4480;52.370;9.748;2022-11-20T09:30:44;12.85;;;7.70;;
8887;SDS011;4480;52.370;9.748;2022-11-20T09:33:11;10.20;;;7.50;;
8887;SDS011;4480;52.370;9.748;2022-11-20T09:35:39;10.00;;;7.78;;
8887;SDS011;4480;52.370;9.748;2022-11-20T09:38:06;8.60;;;6.88;;
8887;SDS011;4480;52.370;9.748;2022-11-20T09:40:34;10.70;;;7.20;;
8887;SDS011;4480;52.370;9.748;2022-11-20T09:43:07;9.48;;;8.15;;
8887;SDS011;4480;52.370;9.748;2022-11-20T09:45:41;10.30;;;9.20;;
8887;SDS011;4480;52.370;9.748;2022-11-20T09:48:35;9.50;;;7.65;;
8887;SDS011;4480;52.370;9.748;2022-11-20T09:51:12;10.73;;;8.07;;
8887;SDS011;4480;52.370;9.748;2022-11-20T09:53:50;10.10;;;7.93;;
8887;SDS011;4480;52.370;9.748;2022-11-20T09:56:25;9.18;;;7.60;;
8887;SDS011;4480;52.370;9.748;2022-11-20T09:58:54;10.40;;;8.15;;
8887;SDS011;4480;52.370;9.748;2022-11-20T10:01:26;9.30;;;7.28;;
8887;SDS011;4480;52.370;9.748;2022-11-20T10:03:58;11.13;;;7.60;;
8887;SDS011;4480;52.370;9.748;2022-11-20T10:06:31;9.43;;;7.88;;
8887;SDS011;4480;52.370;9.748;2022-11-20T10:09:01;9.90;;;7.50;;
8887;SDS011;4480;52.370;9.748;2022-11-20T10:11:44;11.18;;;8.10;;
8887;SDS011;4480;52.370;9.748;2022-11-20T10:14:21;11.95;;;7.05;;
8887;SDS011;4480;52.370;9.748;2022-11-20T10:17:00;13.73;;;8.88;;
8887;SDS011;4480;52.370;9.748;2022-11-20T10:19:41;8.40;;;7.40;;
8887;SDS011;4480;52.370;9.748;2022-11-20T10:22:21;9.68;;;6.75;;
8887;SDS011;4480;52.370;9.748;2022-11-20T10:25:01;8.02;;;6.30;;
8887;SDS011;4480;52.370;9.748;2022-11-20T10:27:37;9.15;;;7.10;;
8887;SDS011;4480;52.370;9.748;2022-11-20T10:30:15;10.55;;;7.63;;
8887;SDS011;4480;52.370;9.748;2022-11-20T10:32:45;8.48;;;6.68;;
8887;SDS011;4480;52.370;9.748;2022-11-20T10:35:17;8.70;;;6.50;;
8887;SDS011;4480;52.370;9.748;2022-11-20T10:37:49;7.05;;;6.35;;
8887;SDS011;4480;52.370;9.748;2022-11-20T10:40:22;7.63;;;5.82;;
8887;SDS011;4480;52.370;9.748;2022-11-20T10:42:53;11.10;;;7.68;;
8887;SDS011;4480;52.370;9.748;2022-11-20T10:45:29;9.77;;;6.82;;
8887;SDS011;4480;52.370;9.748;2022-11-20T10:48:07;8.13;;;6.28;;
8887;SDS011;4480;52.370;9.748;2022-11-20T10:50:40;8.75;;;6.60;;
8887;SDS011;4480;52.370;9.748;2022-11-20T10:53:22;6.10;;;5.38;;
8887;SDS011;4480;52.370;9.748;2022-11-20T10:56:11;7.45;;;5.43;;
8887;SDS011;4480;52.370;9.748;2022-11-20T10:58:45;6.25;;;5.10;;
8887;SDS011;4480;52.370;9.748;2022-11-20T11:01:21;7.47;;;5.57;;
8887;SDS011;4480;52.370;9.748;2022-11-20T11:03:48;5.53;;;4.60;;
8887;SDS011;4480;52.370;9.748;2022-11-20T11:06:17;6.18;;;4.88;;
8887;SDS011;4480;52.370;9.748;2022-11-20T11:08:49;7.75;;;6.05;;
8887;SDS011;4480;52.370;9.748;2022-11-20T11:11:20;5.95;;;5.35;;
8887;SDS011;4480;52.370;9.748;2022-11-20T11:13:49;7.05;;;5.88;;
8887;SDS011;4480;52.370;9.748;2022-11-20T11:16:19;5.63;;;5.00;;
8887;SDS011;4480;52.370;9.748;2022-11-20T11:18:48;6.10;;;5.50;;
8887;SDS011;4480;52.370;9.748;2022-11-20T11:21:19;6.05;;;5.20;;
8887;SDS011;4480;52.370;9.748;2022-11-20T11:23:56;7.65;;;5.63;;
8887;SDS011;4480;52.370;9.748;2022-11-20T11:26:25;9.15;;;5.80;;
8887;SDS011;4480;52.370;9.748;2022-11-20T11:28:53;7.43;;;5.70;;
8887;SDS011;4480;52.370;9.748;2022-11-20T11:31:24;6.20;;;5.50;;
8887;SDS011;4480;52.370;9.748;2022-11-20T11:34:02;8.10;;;6.30;;
8887;SDS011;4480;52.370;9.748;2022-11-20T11:36:30;6.40;;;5.13;;
8887;SDS011;4480;52.370;9.748;2022-11-20T11:39:00;7.47;;;5.97;;
8887;SDS011;4480;52.370;9.748;2022-11-20T11:41:29;7.00;;;5.45;;
8887;SDS011;4480;52.370;9.748;2022-11-20T11:44:00;8.27;;;5.00;;
8887;SDS011;4480;52.370;9.748;2022-11-20T11:46:56;6.43;;;5.28;;
8887;SDS011;4480;52.370;9.748;2022-11-20T11:49:24;8.45;;;5.75;;
8887;SDS011;4480;52.370;9.748;2022-11-20T11:51:59;6.72;;;5.75;;
8887;SDS011;4480;52.370;9.748;2022-11-20T11:54:34;7.63;;;5.45;;
8887;SDS011;4480;52.370;9.748;2022-11-20T11:57:05;10.25;;;7.45;;
8887;SDS011;4480;52.370;9.748;2022-11-20T11:59:41;9.25;;;7.82;;
8887;SDS011;4480;52.370;9.748;2022-11-20T12:02:15;8.27;;;7.03;;
8887;SDS011;4480;52.370;9.748;2022-11-20T12:04:53;8.25;;;6.15;;
8887;SDS011;4480;52.370;9.748;2022-11-20T12:07:27;16.23;;;8.45;;
8887;SDS011;4480;52.370;9.748;2022-11-20T12:10:04;8.65;;;6.75;;
8887;SDS011;4480;52.370;9.748;2022-11-20T12:12:38;11.70;;;7.10;;
8887;SDS011;4480;52.370;9.748;2022-11-20T12:15:09;10.77;;;7.75;;
8887;SDS011;4480;52.370;9.748;2022-11-20T12:17:39;9.32;;;7.00;;
8887;SDS011;4480;52.370;9.748;2022-11-20T12:20:10;9.10;;;7.43;;
8887;SDS011;4480;52.370;9.748;2022-11-20T12:22:40;10.05;;;8.05;;
8887;SDS011;4480;52.370;9.748;2022-11-20T12:25:16;11.15;;;6.80;;
8887;SDS011;4480;52.370;9.748;2022-11-20T12:30:47;10.25;;;8.23;;
8887;SDS011;4480;52.370;9.748;2022-11-20T12:36:17;9.70;;;6.95;;
8887;SDS011;4480;52.370;9.748;2022-11-20T12:38:55;9.60;;;7.60;;
8887;SDS011;4480;52.370;9.748;2022-11-20T12:41:37;12.27;;;7.78;;
8887;SDS011;4480;52.370;9.748;2022-11-20T12:44:43;7.45;;;6.75;;
8887;SDS011;4480;52.370;9.748;2022-11-20T12:47:39;10.85;;;8.43;;
8887;SDS011;4480;52.370;9.748;2022-11-20T12:50:19;8.25;;;7.43;;
8887;SDS011;4480;52.370;9.748;2022-11-20T12:52:55;8.88;;;7.57;;
8887;SDS011;4480;52.370;9.748;2022-11-20T12:55:32;8.38;;;6.95;;
8887;SDS011;4480;52.370;9.748;2022-11-20T12:58:11;9.65;;;7.10;;
8887;SDS011;4480;52.370;9.748;2022-11-20T13:00:47;10.27;;;6.90;;
8887;SDS011;4480;52.370;9.748;2022-11-20T13:03:26;10.15;;;7.50;;
8887;SDS011;4480;52.370;9.748;2022-11-20T13:06:05;9.95;;;8.60;;
8887;SDS011;4480;52.370;9.748;2022-11-20T13:08:40;11.68;;;8.65;;
8887;SDS011;4480;52.370;9.748;2022-11-20T13:11:11;9.73;;;8.27;;
8887;SDS011;4480;52.370;9.748;2022-11-20T13:13:59;9.65;;;7.50;;
8887;SDS011;4480;52.370;9.748;2022-11-20T13:16:38;13.48;;;10.25;;
8887;SDS011;4480;52.370;9.748;2022-11-20T13:19:11;13.05;;;9.50;;
8887;SDS011;4480;52.370;9.748;2022-11-20T13:21:40;10.10;;;7.93;;
8887;SDS011;4480;52.370;9.748;2022-11-20T13:24:19;11.40;;;8.98;;
8887;SDS011;4480;52.370;9.748;2022-11-20T13:26:59;10.50;;;8.63;;
8887;SDS011;4480;52.370;9.748;2022-11-20T13:29:28;14.63;;;9.85;;
8887;SDS011;4480;52.370;9.748;2022-11-20T13:32:02;11.20;;;7.97;;
8887;SDS011;4480;52.370;9.748;2022-11-20T13:34:30;11.00;;;7.30;;
8887;SDS011;4480;52.370;9.748;2022-11-20T13:36:58;11.25;;;8.13;;
8887;SDS011;4480;52.370;9.748;2022-11-20T13:39:29;10.13;;;7.95;;
8887;SDS011;4480;52.370;9.748;2022-11-20T13:41:57;11.57;;;8.35;;
8887;SDS011;4480;52.370;9.748;2022-11-20T13:44:27;14.90;;;9.45;;
8887;SDS011;4480;52.370;9.748;2022-11-20T13:47:03;13.43;;;10.20;;
8887;SDS011;4480;52.370;9.748;2022-11-20T13:49:30;11.43;;;8.93;;
8887;SDS011;4480;52.370;9.748;2022-11-20T13:52:04;9.73;;;7.95;;
8887;SDS011;4480;52.370;9.748;2022-11-20T13:54:55;10.63;;;7.57;;
8887;SDS011;4480;52.370;9.748;2022-11-20T13:57:42;10.73;;;7.65;;
8887;SDS011;4480;52.370;9.748;2022-11-20T14:00:32;9.55;;;8.55;;
8887;SDS011;4480;52.370;9.748;2022-11-20T14:03:01;10.80;;;8.30;;
8887;SDS011;4480;52.370;9.748;2022-11-20T14:05:35;12.48;;;8.75;;
8887;SDS011;4480;52.370;9.748;2022-11-20T14:08:05;10.77;;;7.43;;
8887;SDS011;4480;52.370;9.748;2022-11-20T14:10:35;9.02;;;6.75;;
8887;SDS011;4480;52.370;9.748;2022-11-20T14:13:09;11.50;;;8.55;;
8887;SDS011;4480;52.370;9.748;2022-11-20T14:15:38;11.77;;;8.48;;
8887;SDS011;4480;52.370;9.748;2022-11-20T14:18:11;13.68;;;9.38;;
8887;SDS011;4480;52.370;9.748;2022-11-20T14:20:39;11.68;;;9.57;;
8887;SDS011;4480;52.370;9.748;2022-11-20T14:23:07;14.50;;;9.85;;
8887;SDS011;4480;52.370;9.748;2022-11-20T14:25:36;13.05;;;8.80;;
8887;SDS011;4480;52.370;9.748;2022-11-20T14:28:10;11.40;;;8.75;;
8887;SDS011;4480;52.370;9.748;2022-11-20T14:30:47;12.38;;;8.30;;
8887;SDS011;4480;52.370;9.748;2022-11-20T14:33:15;13.25;;;10.30;;
8887;SDS011;4480;52.370;9.748;2022-11-20T14:35:44;16.85;;;10.60;;
8887;SDS011;4480;52.370;9.748;2022-11-20T14:38:12;14.32;;;11.02;;
8887;SDS011;4480;52.370;9.748;2022-11-20T14:40:41;14.18;;;10.45;;
8887;SDS011;4480;52.370;9.748;2022-11-20T14:43:16;13.60;;;9.25;;
8887;SDS011;4480;52.370;9.748;2022-11-20T14:45:44;14.15;;;10.20;;
8887;SDS011;4480;52.370;9.748;2022-11-20T14:48:17;15.77;;;9.90;;
8887;SDS011;4480;52.370;9.748;2022-11-20T14:50:47;13.18;;;9.15;;
8887;SDS011;4480;52.370;9.748;2022-11-20T14:53:13;13.15;;;9.43;;
8887;SDS011;4480;52.370;9.748;2022-11-20T14:55:54;14.77;;;11.13;;
8887;SDS011;4480;52.370;9.748;2022-11-20T14:58:23;13.00;;;9.73;;
8887;SDS011;4480;52.370;9.748;2022-11-20T15:00:54;13.50;;;9.00;;
8887;SDS011;4480;52.370;9.748;2022-11-20T15:03:30;14.02;;;10.32;;
8887;SDS011;4480;52.370;9.748;2022-11-20T15:05:58;12.60;;;10.50;;
8887;SDS011;4480;52.370;9.748;2022-11-20T15:08:25;12.10;;;9.27;;
8887;SDS011;4480;52.370;9.748;2022-11-20T15:10:52;13.10;;;10.35;;
8887;SDS011;4480;52.370;9.748;2022-11-20T15:13:23;14.40;;;9.82;;
8887;SDS011;4480;52.370;9.748;2022-11-20T15:15:54;15.40;;;10.07;;
8887;SDS011;4480;52.370;9.748;2022-11-20T15:18:22;13.32;;;9.52;;
8887;SDS011;4480;52.370;9.748;2022-11-20T15:20:52;15.13;;;10.60;;
8887;SDS011;4480;52.370;9.748;2022-11-20T15:23:21;15.40;;;11.63;;
8887;SDS011;4480;52.370;9.748;2022-11-20T15:25:49;14.50;;;10.88;;
8887;SDS011;4480;52.370;9.748;2022-11-20T15:28:16;13.48;;;10.40;;
8887;SDS011;4480;52.370;9.748;2022-11-20T15:30:47;14.63;;;11.20;;
8887;SDS011;4480;52.370;9.748;2022-11-20T15:33:16;12.63;;;9.77;;